Time;durP1;ratioP1;P1;durP2;ratioP2;P2;SDS_P1;SDS_P2;PMS_P1;PMS_P2;Temp;Humidity;BMP_temperature;BMP_pressure;BME280_temperature;BME280_humidity;BME280_pressure;Samples;Min_cycle;Max_cycle;Signal;HPM_P1;HPM_P2
2023/10/14 09:50:54;;;;;;;2.57;1.70;;;27.50;73.10;;;;;;5006165;28;20503;-96
2023/10/14 09:58:30;;;;;;;4.07;1.80;;;27.20;73.70;;;;;;5035177;28;20481;-95
2023/10/14 10:00:59;;;;;;;4.23;2.07;;;27.00;74.70;;;;;;5038804;28;20434;-96
2023/10/14 10:03:28;;;;;;;3.63;1.90;;;26.80;75.10;;;;;;5038968;28;20463;-95
2023/10/14 10:06:10;;;;;;;3.17;2.00;;;26.70;74.80;;;;;;5039719;28;20501;-91
2023/10/14 10:09:03;;;;;;;3.30;1.90;;;26.50;74.50;;;;;;5022656;28;20450;-95
2023/10/14 10:11:33;;;;;;;4.33;2.07;;;26.40;76.00;;;;;;5049866;28;20992;-96
2023/10/14 10:14:01;;;;;;;3.10;1.47;;;26.30;76.10;;;;;;5042503;28;20508;-96
2023/10/14 10:16:32;;;;;;;2.70;1.67;;;26.20;76.30;;;;;;5041506;28;20446;-96
2023/10/14 10:19:01;;;;;;;2.77;1.80;;;26.10;76.90;;;;;;5044303;28;20466;-96
2023/10/14 10:21:40;;;;;;;6.43;1.77;;;26.00;76.30;;;;;;5041639;28;20450;-96
2023/10/14 10:24:19;;;;;;;7.47;1.87;;;26.00;76.70;;;;;;5042110;28;20473;-96
2023/10/14 10:27:10;;;;;;;5.87;2.10;;;25.90;76.60;;;;;;5037227;28;20422;-95
2023/10/14 10:29:45;;;;;;;3.40;1.60;;;25.90;76.90;;;;;;5027105;28;20451;-95
2023/10/14 10:32:18;;;;;;;2.43;1.50;;;25.90;77.40;;;;;;5036292;28;20504;-94
2023/10/14 10:35:13;;;;;;;2.50;1.63;;;25.90;77.20;;;;;;5038038;28;20419;-92
2023/10/14 10:37:46;;;;;;;4.33;1.50;;;25.90;77.00;;;;;;5039186;28;20445;-94
2023/10/14 10:40:15;;;;;;;3.53;1.50;;;25.80;77.20;;;;;;5040275;28;20489;-95
2023/10/14 10:42:43;;;;;;;7.43;2.10;;;25.80;76.90;;;;;;5042967;28;20500;-91
2023/10/14 10:45:16;;;;;;;23.73;2.90;;;25.80;77.30;;;;;;5040286;28;20517;-93
2023/10/14 10:47:54;;;;;;;23.53;3.63;;;25.80;76.60;;;;;;5037325;28;20526;-94
2023/10/14 10:50:24;;;;;;;22.30;2.80;;;25.80;76.60;;;;;;5035795;28;20422;-93
2023/10/14 10:53:16;;;;;;;14.17;2.63;;;25.80;76.20;;;;;;5035884;28;20449;-94
2023/10/14 10:55:46;;;;;;;18.73;3.00;;;25.80;76.50;;;;;;5036302;28;20537;-94
2023/10/14 10:58:14;;;;;;;11.90;3.27;;;25.60;76.90;;;;;;5036276;28;20477;-94
2023/10/14 11:00:42;;;;;;;10.97;2.07;;;25.60;76.50;;;;;;5036074;28;21004;-95
2023/10/14 11:03:29;;;;;;;11.57;2.03;;;25.80;77.10;;;;;;5041212;28;20473;-94
2023/10/14 11:05:56;;;;;;;12.43;2.40;;;25.80;77.80;;;;;;5047931;28;20446;-87
2023/10/14 11:08:25;;;;;;;10.43;2.60;;;25.80;78.40;;;;;;5033763;28;20453;-91
2023/10/14 11:10:53;;;;;;;9.33;1.83;;;25.90;77.60;;;;;;5033082;28;20825;-91
2023/10/14 11:13:19;;;;;;;7.40;2.17;;;25.90;76.90;;;;;;5033144;28;20462;-91
2023/10/14 11:15:48;;;;;;;9.33;1.77;;;25.90;76.70;;;;;;5033012;28;20434;-91
2023/10/14 11:18:15;;;;;;;10.77;1.73;;;25.90;76.50;;;;;;5033259;28;20500;-91
2023/10/14 11:20:45;;;;;;;8.43;2.20;;;26.00;76.10;;;;;;5032717;28;20485;-89
2023/10/14 11:23:12;;;;;;;4.20;2.23;;;26.00;76.30;;;;;;5032729;28;20434;-86
2023/10/14 11:25:42;;;;;;;8.10;1.97;;;26.00;78.20;;;;;;5032615;28;20448;-86
2023/10/14 11:28:10;;;;;;;5.53;2.03;;;26.00;78.40;;;;;;5033090;28;20789;-86
2023/10/14 11:30:42;;;;;;;6.97;1.83;;;26.10;78.50;;;;;;5032620;28;20442;-86
2023/10/14 11:33:11;;;;;;;8.87;2.30;;;26.10;78.30;;;;;;5032126;28;20517;-85
2023/10/14 11:35:39;;;;;;;6.17;2.30;;;26.10;78.00;;;;;;5048435;28;20485;-93
2023/10/14 11:38:08;;;;;;;5.97;2.77;;;26.10;78.00;;;;;;5044299;28;20434;-87
2023/10/14 11:40:36;;;;;;;6.30;1.53;;;26.10;77.10;;;;;;5032584;28;20482;-87
2023/10/14 11:43:06;;;;;;;9.00;1.73;;;26.00;76.50;;;;;;5032778;28;20959;-87
2023/10/14 11:45:34;;;;;;;7.13;1.90;;;26.00;76.00;;;;;;5032730;28;20932;-86
2023/10/14 11:48:01;;;;;;;3.00;1.90;;;26.00;76.10;;;;;;5032813;28;20438;-84
2023/10/14 11:50:28;;;;;;;6.43;2.13;;;25.90;77.40;;;;;;5032304;28;20438;-84
2023/10/14 11:52:57;;;;;;;4.33;2.03;;;26.00;76.60;;;;;;5030832;28;20468;-84
2023/10/14 11:55:25;;;;;;;9.40;2.27;;;25.90;76.60;;;;;;5032495;28;20442;-86
2023/10/14 11:57:53;;;;;;;6.53;2.13;;;25.90;76.20;;;;;;5032216;28;20544;-84
2023/10/14 12:00:23;;;;;;;6.90;2.37;;;25.80;76.30;;;;;;5035867;28;20482;-84
2023/10/14 12:02:50;;;;;;;7.83;1.90;;;25.80;76.30;;;;;;5035734;28;20466;-88
2023/10/14 12:05:19;;;;;;;4.57;1.50;;;25.70;75.50;;;;;;5035640;28;20800;-85
2023/10/14 12:07:47;;;;;;;5.33;1.63;;;25.70;76.50;;;;;;5033694;28;20779;-84
2023/10/14 12:10:14;;;;;;;9.33;1.87;;;25.70;75.70;;;;;;5033816;28;20726;-84
2023/10/14 12:12:40;;;;;;;4.50;1.67;;;25.70;75.70;;;;;;5033761;28;20448;-84
2023/10/14 12:15:08;;;;;;;3.77;1.90;;;25.70;75.60;;;;;;5033535;28;20450;-87
2023/10/14 12:17:36;;;;;;;2.30;1.83;;;25.60;75.20;;;;;;5033501;28;20442;-85
2023/10/14 12:20:06;;;;;;;3.20;1.40;;;25.60;75.30;;;;;;5033597;28;20493;-85
2023/10/14 12:22:33;;;;;;;4.07;1.40;;;25.60;75.30;;;;;;5034891;28;20453;-86
2023/10/14 12:25:01;;;;;;;5.13;1.80;;;25.60;75.60;;;;;;5034906;28;20527;-83
2023/10/14 12:27:29;;;;;;;4.43;1.40;;;25.70;76.10;;;;;;5029521;28;20462;-84
2023/10/14 12:29:59;;;;;;;4.23;1.53;;;25.70;77.10;;;;;;5035048;28;20438;-84
2023/10/14 12:32:30;;;;;;;8.13;1.63;;;25.70;77.60;;;;;;5034782;28;20458;-84
2023/10/14 12:34:59;;;;;;;4.03;1.80;;;25.70;76.50;;;;;;5034840;28;20485;-84
2023/10/14 12:37:28;;;;;;;3.40;1.80;;;25.70;76.10;;;;;;5034826;28;20436;-84
2023/10/14 12:40:04;;;;;;;2.90;1.40;;;25.70;75.60;;;;;;5034795;28;20557;-87
2023/10/14 12:42:45;;;;;;;3.23;1.40;;;25.70;75.70;;;;;;5035162;28;20444;-85
2023/10/14 12:45:13;;;;;;;2.13;1.30;;;25.70;77.90;;;;;;5015664;28;20439;-85
2023/10/14 12:47:45;;;;;;;2.50;1.40;;;25.80;77.50;;;;;;5028398;28;20435;-85
2023/10/14 12:50:15;;;;;;;4.97;2.07;;;25.80;76.80;;;;;;5027554;28;20442;-85
2023/10/14 12:52:42;;;;;;;3.13;1.87;;;25.80;76.40;;;;;;5035009;28;20449;-85
2023/10/14 12:55:17;;;;;;;4.57;1.70;;;25.80;78.30;;;;;;5035059;28;20442;-85
2023/10/14 12:57:44;;;;;;;1.60;1.40;;;25.80;78.30;;;;;;5035176;28;20608;-85
2023/10/14 13:00:18;;;;;;;3.10;1.87;;;25.80;76.70;;;;;;5023975;28;20470;-86
2023/10/14 13:02:45;;;;;;;4.47;1.40;;;25.90;77.10;;;;;;5035031;28;20545;-84
2023/10/14 13:05:18;;;;;;;2.23;1.40;;;25.80;76.80;;;;;;5034670;28;20517;-86
2023/10/14 13:07:46;;;;;;;2.73;1.10;;;25.80;76.40;;;;;;5034836;28;20804;-86
2023/10/14 13:10:18;;;;;;;3.80;1.60;;;25.80;76.00;;;;;;5033830;28;20445;-84
2023/10/14 13:12:49;;;;;;;1.80;1.20;;;25.80;75.80;;;;;;5034473;28;20926;-84
2023/10/14 13:15:25;;;;;;;2.90;1.00;;;25.80;75.70;;;;;;5034754;28;20946;-85
2023/10/14 13:17:56;;;;;;;2.17;1.60;;;25.80;75.50;;;;;;5034781;28;20521;-84
2023/10/14 13:20:27;;;;;;;2.43;1.40;;;25.80;75.10;;;;;;5034765;28;20493;-86
2023/10/14 13:22:55;;;;;;;2.50;1.33;;;25.80;75.10;;;;;;5015170;28;20454;-86
2023/10/14 13:25:22;;;;;;;3.33;1.57;;;25.80;75.00;;;;;;5014783;28;20439;-90
2023/10/14 13:27:51;;;;;;;7.30;1.63;;;25.80;74.90;;;;;;5015029;28;20442;-89
2023/10/14 13:30:22;;;;;;;1.40;1.10;;;25.70;75.70;;;;;;5015123;28;20542;-89
2023/10/14 13:32:52;;;;;;;3.67;1.33;;;25.70;75.70;;;;;;5015007;28;20550;-89
2023/10/14 13:35:19;;;;;;;2.70;1.17;;;25.70;75.80;;;;;;5014741;28;20443;-90
2023/10/14 13:37:48;;;;;;;4.60;1.30;;;25.70;75.70;;;;;;5014626;28;20948;-89
2023/10/14 13:40:20;;;;;;;4.23;1.60;;;25.60;74.70;;;;;;5014575;28;20491;-90
2023/10/14 13:42:48;;;;;;;3.30;1.73;;;25.60;74.20;;;;;;5014761;28;20530;-90
2023/10/14 13:45:16;;;;;;;2.83;1.57;;;25.60;72.80;;;;;;5014506;28;20457;-90
2023/10/14 13:47:43;;;;;;;3.30;1.50;;;25.60;72.30;;;;;;5014499;28;20506;-90
2023/10/14 13:50:12;;;;;;;1.93;1.50;;;25.60;71.80;;;;;;5014724;28;20451;-89
2023/10/14 13:52:39;;;;;;;2.57;1.30;;;25.60;71.10;;;;;;5014405;28;20451;-90
2023/10/14 13:55:08;;;;;;;3.90;1.50;;;25.50;70.50;;;;;;5014296;28;20443;-89
2023/10/14 13:57:35;;;;;;;4.83;1.90;;;25.50;70.10;;;;;;5013970;28;20467;-89
2023/10/14 14:00:07;;;;;;;3.60;1.70;;;25.50;69.90;;;;;;5014125;28;20461;-89
2023/10/14 14:02:35;;;;;;;2.77;1.60;;;25.50;70.00;;;;;;5014120;28;20542;-89
2023/10/14 14:05:04;;;;;;;5.40;1.67;;;25.50;69.70;;;;;;5014177;28;20443;-89
2023/10/14 14:07:36;;;;;;;3.53;1.23;;;25.40;69.20;;;;;;5014191;28;21013;-89
2023/10/14 14:10:08;;;;;;;2.40;1.40;;;25.40;69.10;;;;;;5014139;28;20938;-89
2023/10/14 14:12:37;;;;;;;3.73;1.20;;;25.40;68.90;;;;;;5014144;28;20826;-89
2023/10/14 14:15:07;;;;;;;4.03;1.33;;;25.40;68.70;;;;;;5014100;28;20505;-89
2023/10/14 14:17:34;;;;;;;3.53;1.30;;;25.30;68.40;;;;;;5013970;28;20521;-89
2023/10/14 14:20:01;;;;;;;3.13;1.67;;;25.30;68.00;;;;;;5014090;28;20449;-89
2023/10/14 14:22:28;;;;;;;2.30;1.37;;;25.30;67.70;;;;;;5013451;28;20439;-90
2023/10/14 14:24:56;;;;;;;6.00;1.20;;;25.30;67.70;;;;;;5013698;28;20451;-90
2023/10/14 14:27:23;;;;;;;4.03;1.90;;;25.20;67.60;;;;;;5012851;28;20439;-89
2023/10/14 14:29:55;;;;;;;3.20;1.60;;;25.20;67.50;;;;;;5013186;28;20447;-89
2023/10/14 14:32:22;;;;;;;2.70;1.30;;;25.20;67.60;;;;;;5012961;28;20466;-89
2023/10/14 14:34:49;;;;;;;4.33;1.60;;;25.20;68.20;;;;;;5013170;28;20992;-89
2023/10/14 14:37:16;;;;;;;3.40;1.70;;;25.20;68.60;;;;;;5013619;28;20465;-89
2023/10/14 14:39:43;;;;;;;2.90;1.37;;;25.20;69.00;;;;;;5013702;28;20436;-89
2023/10/14 14:42:13;;;;;;;3.70;1.40;;;25.20;69.30;;;;;;5013769;28;20600;-89
2023/10/14 14:44:41;;;;;;;2.47;1.30;;;25.20;69.80;;;;;;5013474;28;20443;-89
2023/10/14 14:47:12;;;;;;;1.40;1.00;;;25.30;70.00;;;;;;5013521;28;20435;-89
2023/10/14 14:49:41;;;;;;;3.17;1.53;;;25.30;70.60;;;;;;5013751;28;20451;-89
2023/10/14 14:52:08;;;;;;;2.03;1.30;;;25.30;70.70;;;;;;5013615;28;20446;-90
2023/10/14 14:54:35;;;;;;;3.93;1.40;;;25.20;71.30;;;;;;5013592;28;20439;-90
2023/10/14 14:57:02;;;;;;;2.10;1.40;;;25.20;70.90;;;;;;5013232;28;20470;-89
2023/10/14 14:59:29;;;;;;;1.93;1.27;;;25.20;70.90;;;;;;5013530;28;20435;-90
2023/10/14 15:01:56;;;;;;;2.17;1.20;;;25.20;70.90;;;;;;5013401;28;20526;-90
2023/10/14 15:04:26;;;;;;;4.40;1.47;;;25.20;71.00;;;;;;5013286;28;20881;-89
2023/10/14 15:06:55;;;;;;;4.27;1.90;;;25.20;72.10;;;;;;5013507;28;20447;-89
2023/10/14 15:09:22;;;;;;;2.67;1.27;;;25.20;71.40;;;;;;5013514;28;20458;-90
2023/10/14 15:11:48;;;;;;;3.20;1.60;;;25.20;71.40;;;;;;5024330;28;20452;-89
2023/10/14 15:14:16;;;;;;;3.90;1.40;;;25.30;71.50;;;;;;5032929;28;20925;-90
2023/10/14 15:16:43;;;;;;;4.50;1.43;;;25.20;71.40;;;;;;5033071;28;20442;-89
2023/10/14 15:19:10;;;;;;;3.03;1.47;;;25.20;69.00;;;;;;5033032;28;20533;-85
2023/10/14 15:21:38;;;;;;;3.20;1.37;;;25.10;65.90;;;;;;5032744;28;20482;-85
2023/10/14 15:24:09;;;;;;;4.70;2.00;;;25.10;67.10;;;;;;5032914;28;20525;-84
2023/10/14 15:26:36;;;;;;;3.27;1.50;;;25.10;68.00;;;;;;5032567;28;20442;-85
2023/10/14 15:29:04;;;;;;;2.80;1.40;;;25.10;68.90;;;;;;5032603;28;20547;-85
2023/10/14 15:31:31;;;;;;;4.10;1.10;;;25.20;70.00;;;;;;5031546;28;20493;-85
2023/10/14 15:33:59;;;;;;;3.80;1.57;;;25.20;71.30;;;;;;5033757;28;20434;-85
2023/10/14 15:36:27;;;;;;;2.50;1.43;;;25.20;71.90;;;;;;5036507;28;20812;-86
2023/10/14 15:38:55;;;;;;;2.73;1.20;;;25.20;72.20;;;;;;5036473;28;20524;-86
2023/10/14 15:41:25;;;;;;;4.13;1.63;;;25.30;72.70;;;;;;5036358;28;20517;-86
2023/10/14 15:43:52;;;;;;;2.57;1.37;;;25.30;73.00;;;;;;5036450;28;20438;-85
2023/10/14 15:46:19;;;;;;;3.40;1.50;;;25.30;73.20;;;;;;5036360;28;20449;-86
2023/10/14 15:48:47;;;;;;;4.80;1.77;;;25.30;73.30;;;;;;5036283;28;20438;-85
2023/10/14 15:51:19;;;;;;;3.03;1.33;;;25.30;73.50;;;;;;5036203;28;20473;-85
2023/10/14 15:53:50;;;;;;;2.97;1.60;;;25.30;74.50;;;;;;5036176;28;20446;-85
2023/10/14 15:56:19;;;;;;;4.70;2.10;;;25.30;73.50;;;;;;5035983;28;20454;-85
2023/10/14 15:58:48;;;;;;;2.90;1.23;;;25.30;73.50;;;;;;5036129;28;20438;-85
2023/10/14 16:01:17;;;;;;;2.60;1.47;;;25.40;74.60;;;;;;5035885;28;20612;-85
2023/10/14 16:03:44;;;;;;;1.30;0.90;;;25.30;73.70;;;;;;5035996;28;20449;-86
2023/10/14 16:06:12;;;;;;;1.47;1.00;;;25.30;73.70;;;;;;5035805;28;20525;-86
2023/10/14 16:08:40;;;;;;;1.40;1.13;;;25.30;73.80;;;;;;5035891;28;20949;-86
2023/10/14 16:11:07;;;;;;;2.00;1.30;;;25.30;73.60;;;;;;5035916;28;20446;-86
2023/10/14 16:13:36;;;;;;;2.07;1.00;;;25.30;73.70;;;;;;5035799;28;20521;-86
2023/10/14 16:16:03;;;;;;;2.80;1.40;;;25.30;73.70;;;;;;5035781;28;20445;-86
2023/10/14 16:18:31;;;;;;;5.27;1.97;;;25.30;74.60;;;;;;5035655;28;20453;-85
2023/10/14 16:20:58;;;;;;;2.17;1.40;;;25.30;73.60;;;;;;5035670;28;20568;-85
2023/10/14 16:23:26;;;;;;;1.70;1.20;;;25.30;73.50;;;;;;5035697;28;20484;-85
2023/10/14 16:25:53;;;;;;;2.03;1.23;;;25.30;73.70;;;;;;5035644;28;20509;-85
2023/10/14 16:28:20;;;;;;;1.80;1.40;;;25.30;73.70;;;;;;5035688;28;20790;-85
2023/10/14 16:30:48;;;;;;;4.00;1.20;;;25.30;73.60;;;;;;5035471;28;20438;-85
2023/10/14 16:33:15;;;;;;;1.87;1.20;;;25.30;73.80;;;;;;5035444;28;20541;-85
2023/10/14 16:35:42;;;;;;;2.97;1.20;;;25.20;73.60;;;;;;5035319;28;20441;-85
2023/10/14 16:38:10;;;;;;;2.47;1.33;;;25.20;73.70;;;;;;5035383;28;20952;-85
2023/10/14 16:40:37;;;;;;;1.80;1.17;;;25.20;73.80;;;;;;5035226;28;20430;-85
2023/10/14 16:43:08;;;;;;;2.63;1.30;;;25.20;73.90;;;;;;5035101;28;20449;-85
2023/10/14 16:45:36;;;;;;;1.83;1.13;;;25.20;73.80;;;;;;5035241;28;20449;-85
2023/10/14 16:48:07;;;;;;;2.27;1.10;;;25.30;74.00;;;;;;5035187;28;20441;-85
2023/10/14 16:50:37;;;;;;;2.33;1.10;;;25.20;73.80;;;;;;5035332;28;20445;-85
2023/10/14 16:53:04;;;;;;;2.27;1.30;;;25.20;73.80;;;;;;5035100;28;20442;-85
2023/10/14 16:55:33;;;;;;;2.60;1.50;;;25.20;73.80;;;;;;5034886;28;20521;-85
2023/10/14 16:58:00;;;;;;;1.83;1.23;;;25.20;73.90;;;;;;5034839;28;20673;-85
2023/10/14 17:00:31;;;;;;;2.90;1.13;;;25.20;74.10;;;;;;5035012;28;20449;-85
2023/10/14 17:02:58;;;;;;;2.03;1.20;;;25.20;74.00;;;;;;5034829;28;20497;-85
2023/10/14 17:05:27;;;;;;;1.90;1.30;;;25.20;73.90;;;;;;5034857;28;20470;-85
2023/10/14 17:07:57;;;;;;;1.53;0.90;;;25.20;74.10;;;;;;5034885;28;20529;-85
2023/10/14 17:10:26;;;;;;;1.47;1.00;;;25.20;74.90;;;;;;5034872;28;20438;-85
2023/10/14 17:12:55;;;;;;;2.83;1.13;;;25.20;74.00;;;;;;5034845;28;20798;-85
2023/10/14 17:15:23;;;;;;;1.40;0.83;;;25.20;74.10;;;;;;5034628;28;20445;-85
2023/10/14 17:17:52;;;;;;;4.83;1.53;;;25.20;74.00;;;;;;5034745;28;20445;-85
2023/10/14 17:20:21;;;;;;;2.30;1.30;;;25.20;74.90;;;;;;5034590;28;20522;-85
2023/10/14 17:22:52;;;;;;;1.37;1.00;;;25.20;74.10;;;;;;5034549;28;20492;-85
2023/10/14 17:25:20;;;;;;;3.07;1.20;;;25.20;74.20;;;;;;5034488;28;20832;-85
2023/10/14 17:27:48;;;;;;;2.33;1.20;;;25.20;74.20;;;;;;5034528;28;20437;-85
2023/10/14 17:30:15;;;;;;;1.40;1.00;;;25.20;74.30;;;;;;5034425;28;20890;-85
2023/10/14 17:32:43;;;;;;;2.30;1.13;;;25.20;74.10;;;;;;5034231;28;20470;-88
2023/10/14 17:35:12;;;;;;;13.70;2.30;;;25.20;74.20;;;;;;5034352;28;20799;-86
2023/10/14 17:37:40;;;;;;;8.07;1.83;;;25.10;72.90;;;;;;5034204;28;20963;-85
2023/10/14 17:40:13;;;;;;;5.37;1.40;;;25.10;73.70;;;;;;5034429;28;20933;-86
2023/10/14 17:42:42;;;;;;;7.90;1.40;;;25.10;73.10;;;;;;5034325;28;20485;-85
2023/10/14 17:45:09;;;;;;;4.43;0.97;;;25.00;73.00;;;;;;5034177;28;20441;-85
2023/10/14 17:47:36;;;;;;;2.80;1.40;;;25.00;73.70;;;;;;5033834;28;20442;-88
2023/10/14 17:50:05;;;;;;;3.73;1.30;;;24.90;74.00;;;;;;5034167;28;20453;-90
2023/10/14 17:52:32;;;;;;;2.70;1.10;;;25.00;74.00;;;;;;5034346;28;20500;-90
2023/10/14 17:55:10;;;;;;;4.37;1.50;;;25.00;73.40;;;;;;5034243;28;20448;-89
2023/10/14 17:57:41;;;;;;;2.30;1.30;;;25.00;73.40;;;;;;5033347;28;20473;-88
2023/10/14 18:00:10;;;;;;;2.17;1.13;;;24.90;73.20;;;;;;5034323;28;20434;-88
2023/10/14 18:02:37;;;;;;;2.50;1.13;;;24.90;73.40;;;;;;5033708;28;20541;-88
2023/10/14 18:05:07;;;;;;;2.13;1.40;;;24.90;73.70;;;;;;5033938;28;20449;-88
2023/10/14 18:07:37;;;;;;;1.60;1.10;;;24.80;73.70;;;;;;5034004;28;20445;-88
2023/10/14 18:10:06;;;;;;;1.40;1.20;;;24.80;73.70;;;;;;5033876;28;20438;-89
2023/10/14 18:12:37;;;;;;;2.80;1.10;;;24.80;74.10;;;;;;5033990;28;20448;-88
2023/10/14 18:15:12;;;;;;;3.23;1.60;;;24.80;74.00;;;;;;5033549;28;20477;-86
2023/10/14 18:17:42;;;;;;;1.70;1.20;;;24.80;74.20;;;;;;5033842;28;20457;-87
2023/10/14 18:20:14;;;;;;;4.90;1.50;;;24.90;74.80;;;;;;5033942;28;20446;-85
2023/10/14 18:22:42;;;;;;;2.40;1.40;;;24.90;74.50;;;;;;5033630;28;20482;-85
2023/10/14 18:25:11;;;;;;;2.27;1.47;;;24.90;74.50;;;;;;5033857;28;20434;-85
2023/10/14 18:27:38;;;;;;;1.60;1.17;;;24.80;74.50;;;;;;5033734;28;20624;-86
2023/10/14 18:30:09;;;;;;;2.03;1.57;;;24.80;74.50;;;;;;5033772;28;20438;-85
2023/10/14 18:32:36;;;;;;;2.90;1.20;;;24.80;74.30;;;;;;5033079;28;20466;-86
2023/10/14 18:35:03;;;;;;;2.23;1.60;;;24.80;74.80;;;;;;5033183;28;20537;-88
2023/10/14 18:37:30;;;;;;;1.93;1.23;;;24.80;74.90;;;;;;5033039;28;20472;-86
2023/10/14 18:39:57;;;;;;;4.00;1.30;;;24.80;74.30;;;;;;5033160;28;20444;-86
2023/10/14 18:42:23;;;;;;;4.23;1.40;;;24.80;74.20;;;;;;5032825;28;20481;-86
2023/10/14 18:44:50;;;;;;;6.73;1.37;;;24.80;74.70;;;;;;5033185;28;20442;-86
2023/10/14 18:47:18;;;;;;;2.90;1.10;;;24.80;74.90;;;;;;5032918;28;20434;-85
2023/10/14 18:49:46;;;;;;;4.30;1.00;;;24.80;74.70;;;;;;5033224;28;20534;-86
2023/10/14 18:52:13;;;;;;;2.00;1.40;;;24.80;75.20;;;;;;5033236;28;20449;-86
2023/10/14 18:54:40;;;;;;;3.00;1.03;;;24.80;75.00;;;;;;5032987;28;20433;-87
2023/10/14 18:57:10;;;;;;;4.40;1.50;;;24.80;75.20;;;;;;5032722;28;20480;-87
2023/10/14 18:59:39;;;;;;;3.60;1.67;;;24.80;75.20;;;;;;5033085;28;20516;-86
2023/10/14 19:02:06;;;;;;;2.63;1.33;;;24.80;75.00;;;;;;5032786;28;20579;-86
2023/10/14 19:04:34;;;;;;;1.40;1.10;;;24.80;75.40;;;;;;5033034;28;20881;-86
2023/10/14 19:07:01;;;;;;;5.20;1.30;;;24.80;75.00;;;;;;5032646;28;20448;-87
2023/10/14 19:09:28;;;;;;;2.40;1.30;;;24.80;75.50;;;;;;5035534;28;20438;-87
2023/10/14 19:11:56;;;;;;;3.73;1.33;;;24.80;75.40;;;;;;5037029;28;20434;-86
2023/10/14 19:14:25;;;;;;;2.47;1.30;;;24.80;75.40;;;;;;5036839;28;20517;-86
2023/10/14 19:16:51;;;;;;;2.37;1.10;;;24.80;75.50;;;;;;5036783;28;20441;-86
2023/10/14 19:19:19;;;;;;;2.13;1.27;;;24.80;75.50;;;;;;5036986;28;20435;-87
2023/10/14 19:21:48;;;;;;;2.97;1.40;;;24.80;75.70;;;;;;5036828;28;20785;-88
2023/10/14 19:24:15;;;;;;;1.37;1.17;;;24.80;75.60;;;;;;5036851;28;20441;-87
2023/10/14 19:26:42;;;;;;;2.07;1.27;;;24.80;75.60;;;;;;5036799;28;20434;-87
2023/10/14 19:29:09;;;;;;;1.43;1.00;;;24.80;75.70;;;;;;5036715;28;20434;-87
2023/10/14 19:31:36;;;;;;;2.00;1.57;;;24.80;75.50;;;;;;5036653;28;20497;-86
2023/10/14 19:34:04;;;;;;;1.97;1.23;;;24.80;75.70;;;;;;5036486;28;20437;-87
2023/10/14 19:36:32;;;;;;;2.07;1.40;;;24.80;75.70;;;;;;5036613;28;20449;-87
2023/10/14 19:39:00;;;;;;;2.17;1.50;;;24.70;75.60;;;;;;5036548;28;20434;-87
2023/10/14 19:41:27;;;;;;;3.13;1.30;;;24.70;75.60;;;;;;5036478;28;20513;-86
2023/10/14 19:43:53;;;;;;;4.00;1.60;;;24.80;75.80;;;;;;5036394;28;20488;-86
2023/10/14 19:46:23;;;;;;;3.20;1.40;;;24.70;75.60;;;;;;5036481;28;20952;-86
2023/10/14 19:48:49;;;;;;;1.33;1.00;;;24.70;75.80;;;;;;5036286;28;20529;-87
2023/10/14 19:51:16;;;;;;;1.90;1.20;;;24.70;75.70;;;;;;5036297;28;20448;-87
2023/10/14 19:53:43;;;;;;;2.20;1.07;;;24.80;75.30;;;;;;5036376;28;20448;-87
2023/10/14 19:56:12;;;;;;;2.13;1.20;;;24.80;75.60;;;;;;5036052;28;20841;-86
2023/10/14 19:58:39;;;;;;;2.20;1.10;;;24.70;75.50;;;;;;5036145;28;20531;-87
2023/10/14 20:01:09;;;;;;;1.80;1.10;;;24.80;75.50;;;;;;5036056;28;20466;-86
2023/10/14 20:03:36;;;;;;;1.90;1.13;;;24.70;75.50;;;;;;5035881;28;20513;-87
2023/10/14 20:06:05;;;;;;;1.50;1.30;;;24.70;75.40;;;;;;5036024;28;20485;-87
2023/10/14 20:08:33;;;;;;;1.50;1.00;;;24.70;75.30;;;;;;5035707;28;20446;-86
2023/10/14 20:11:02;;;;;;;1.60;1.10;;;24.70;75.40;;;;;;5036099;28;20952;-88
2023/10/14 20:13:30;;;;;;;3.00;1.40;;;24.70;75.40;;;;;;5035786;28;20438;-87
2023/10/14 20:15:57;;;;;;;2.10;1.03;;;24.70;75.40;;;;;;5035461;28;20437;-87
2023/10/14 20:18:24;;;;;;;1.43;1.00;;;24.70;75.30;;;;;;5035900;28;20439;-88
2023/10/14 20:20:51;;;;;;;1.80;1.00;;;24.70;75.20;;;;;;5035414;28;20876;-88
2023/10/14 20:23:20;;;;;;;1.53;1.30;;;24.70;75.30;;;;;;5035677;28;20549;-87
2023/10/14 20:25:49;;;;;;;1.50;1.00;;;24.70;75.40;;;;;;5035728;28;20518;-88
2023/10/14 20:28:17;;;;;;;3.67;1.53;;;24.70;75.30;;;;;;5035593;28;20533;-88
2023/10/14 20:30:47;;;;;;;2.60;1.50;;;24.70;75.20;;;;;;5035408;28;20853;-88
2023/10/14 20:33:17;;;;;;;1.70;1.17;;;24.70;75.30;;;;;;5035543;28;20442;-88
2023/10/14 20:35:44;;;;;;;1.40;1.30;;;24.70;75.30;;;;;;5035479;28;20525;-88
2023/10/14 20:38:12;;;;;;;2.70;1.20;;;24.70;75.30;;;;;;5035474;28;20853;-88
2023/10/14 20:40:43;;;;;;;1.47;1.10;;;24.70;75.20;;;;;;5035498;28;20434;-88
2023/10/14 20:43:10;;;;;;;1.77;1.10;;;24.70;75.20;;;;;;5035333;28;20899;-87
2023/10/14 20:45:39;;;;;;;3.23;1.40;;;24.70;75.20;;;;;;5035316;28;20524;-87
2023/10/14 20:48:13;;;;;;;1.60;1.10;;;24.70;75.10;;;;;;5035218;28;20529;-86
2023/10/14 20:50:40;;;;;;;1.63;1.37;;;24.70;75.20;;;;;;5035364;28;20438;-87
2023/10/14 20:53:08;;;;;;;1.67;1.10;;;24.70;75.30;;;;;;5035047;28;20449;-87
2023/10/14 20:55:38;;;;;;;1.50;1.20;;;24.70;75.20;;;;;;5035044;28;20442;-86
2023/10/14 20:58:07;;;;;;;1.93;1.20;;;24.70;75.20;;;;;;5034885;28;20474;-85
2023/10/14 21:00:36;;;;;;;1.90;1.20;;;24.70;75.20;;;;;;5035062;28;20949;-85
2023/10/14 21:03:08;;;;;;;1.20;0.97;;;24.70;75.30;;;;;;5034284;28;20496;-83
2023/10/14 21:05:39;;;;;;;2.53;1.33;;;24.70;75.60;;;;;;5034923;28;20446;-84
2023/10/14 21:08:12;;;;;;;1.70;1.00;;;24.70;75.30;;;;;;5034811;28;20867;-84
2023/10/14 21:10:41;;;;;;;2.50;1.27;;;24.70;75.30;;;;;;5034847;28;20551;-84
2023/10/14 21:13:08;;;;;;;2.00;1.40;;;24.70;75.30;;;;;;5034682;28;20449;-84
2023/10/14 21:15:36;;;;;;;2.40;1.60;;;24.70;75.20;;;;;;5034672;28;20438;-83
2023/10/14 21:18:05;;;;;;;2.90;1.67;;;24.70;75.30;;;;;;5034705;28;20438;-83
2023/10/14 21:20:40;;;;;;;2.37;1.17;;;24.60;75.00;;;;;;5034673;28;20427;-84
2023/10/14 21:23:08;;;;;;;2.10;1.50;;;24.70;75.20;;;;;;5034554;28;20545;-84
2023/10/14 21:25:35;;;;;;;2.97;1.57;;;24.60;75.00;;;;;;5034509;28;20496;-84
2023/10/14 21:28:03;;;;;;;2.20;1.50;;;24.60;75.00;;;;;;5034493;28;20438;-84
2023/10/14 21:30:31;;;;;;;1.80;1.40;;;24.60;75.00;;;;;;5034065;28;20442;-83
2023/10/14 21:32:59;;;;;;;1.20;1.07;;;24.60;74.90;;;;;;5033825;28;20465;-84
2023/10/14 21:35:26;;;;;;;1.83;1.10;;;24.60;74.90;;;;;;5034187;28;20458;-84
2023/10/14 21:37:55;;;;;;;1.60;1.40;;;24.60;75.00;;;;;;5034257;28;20437;-84
2023/10/14 21:40:22;;;;;;;1.37;1.10;;;24.60;74.70;;;;;;5034294;28;20438;-83
2023/10/14 21:42:50;;;;;;;1.30;1.20;;;24.60;74.70;;;;;;5034076;28;20537;-83
2023/10/14 21:45:22;;;;;;;1.30;1.10;;;24.60;74.90;;;;;;5034127;28;20481;-84
2023/10/14 21:47:50;;;;;;;2.23;1.50;;;24.60;74.80;;;;;;5034115;28;20446;-84
2023/10/14 21:50:18;;;;;;;2.50;1.13;;;24.60;75.00;;;;;;5034075;28;20446;-84
2023/10/14 21:52:46;;;;;;;2.23;1.30;;;24.60;74.90;;;;;;5033912;28;20820;-87
2023/10/14 21:55:18;;;;;;;2.93;1.63;;;24.50;74.80;;;;;;5033860;28;20430;-84
2023/10/14 21:57:45;;;;;;;1.93;1.40;;;24.50;74.80;;;;;;5033827;28;20465;-83
2023/10/14 22:00:20;;;;;;;1.70;1.23;;;24.60;75.10;;;;;;5033946;28;20475;-84
2023/10/14 22:02:47;;;;;;;1.77;1.30;;;24.50;74.90;;;;;;5033617;28;20477;-87
2023/10/14 22:05:15;;;;;;;3.30;1.10;;;24.60;75.00;;;;;;5033701;28;20537;-83
2023/10/14 22:07:42;;;;;;;2.13;1.47;;;24.50;75.10;;;;;;5033768;28;20434;-84
2023/10/14 22:10:14;;;;;;;1.97;1.30;;;24.50;75.00;;;;;;5033578;28;20529;-84
2023/10/14 22:12:43;;;;;;;2.10;1.50;;;24.50;75.10;;;;;;5033861;28;20524;-84
2023/10/14 22:15:15;;;;;;;1.73;1.13;;;24.50;75.10;;;;;;5033494;28;20442;-84
2023/10/14 22:17:42;;;;;;;1.60;1.30;;;24.50;75.10;;;;;;5033683;28;20529;-84
2023/10/14 22:20:09;;;;;;;1.23;1.03;;;24.50;75.00;;;;;;5033561;28;20525;-87
2023/10/14 22:22:36;;;;;;;2.10;1.00;;;24.50;75.00;;;;;;5033376;28;20937;-83
2023/10/14 22:25:04;;;;;;;1.37;1.23;;;24.50;75.00;;;;;;5033415;28;20438;-87
2023/10/14 22:27:31;;;;;;;1.90;1.20;;;24.50;75.10;;;;;;5033331;28;20442;-87
2023/10/14 22:29:59;;;;;;;1.50;1.23;;;24.50;75.10;;;;;;5033453;28;20537;-83
2023/10/14 22:32:26;;;;;;;1.93;1.23;;;24.50;75.10;;;;;;5033243;28;20458;-84
2023/10/14 22:34:53;;;;;;;1.53;0.90;;;24.50;75.20;;;;;;5033287;28;20447;-84
2023/10/14 22:37:20;;;;;;;1.90;1.40;;;24.50;75.10;;;;;;5033305;28;20437;-87
2023/10/14 22:39:47;;;;;;;1.20;0.90;;;24.50;75.10;;;;;;5033264;28;20512;-83
2023/10/14 22:42:13;;;;;;;1.60;1.30;;;24.50;75.10;;;;;;5033179;28;20439;-83
2023/10/14 22:44:40;;;;;;;1.37;1.13;;;24.40;75.10;;;;;;5033140;28;20486;-84
2023/10/14 22:47:08;;;;;;;2.37;1.43;;;24.40;75.00;;;;;;5033260;28;20440;-84
2023/10/14 22:49:35;;;;;;;2.67;1.30;;;24.50;75.00;;;;;;5033284;28;20917;-84